Aviation Digital Data Service (ADDS)

Output produced by METARs form (1827 UTC 19 April 2019)
found at http://www.aviationweather.gov/metar/data/
 
METAR text: UNTT 191800Z 21003MPS CAVOK M04/M08 Q1018 NOSIG RMK QFE748
Conditions at: UNTT (PLOTNIKOVO/TOMSK, RU) observed 1800 UTC 19 April 2019
Temperature: -4.0°C (25°F)
Dewpoint: -8.0°C (18°F) [RH = 74%]
Pressure (altimeter): 30.06 inches Hg (1018.0 mb)
Winds: from the SSW (210 degrees) at 7 MPH (6 knots; 3.1 m/s)
Visibility: 6 or more miles (10+ km)
Ceiling: ceiling and visibility are OK
Clouds: unknown
Weather: no significant weather observed at this time

METAR text: UNTT 191700Z 19003MPS CAVOK M04/M08 Q1018 NOSIG RMK QFE749
Conditions at: UNTT (PLOTNIKOVO/TOMSK, RU) observed 1700 UTC 19 April 2019
Temperature: -4.0°C (25°F)
Dewpoint: -8.0°C (18°F) [RH = 74%]
Pressure (altimeter): 30.06 inches Hg (1018.0 mb)
Winds: from the S (190 degrees) at 7 MPH (6 knots; 3.1 m/s)
Visibility: 6 or more miles (10+ km)
Ceiling: ceiling and visibility are OK
Clouds: unknown
Weather: no significant weather observed at this time

METAR text: UNTT 191600Z 18003MPS CAVOK M03/M07 Q1019 R21/190055 NOSIG RMK QFE749
Conditions at: UNTT (PLOTNIKOVO/TOMSK, RU) observed 1600 UTC 19 April 2019
Temperature: -3.0°C (27°F)
Dewpoint: -7.0°C (19°F) [RH = 74%]
Pressure (altimeter): 30.09 inches Hg (1019.0 mb)
Winds: from the S (180 degrees) at 7 MPH (6 knots; 3.1 m/s)
Visibility: 6 or more miles (10+ km)
Ceiling: ceiling and visibility are OK
Clouds: unknown
Weather: no significant weather observed at this time

METAR text: UNTT 191530Z 17003MPS CAVOK M02/M07 Q1019 R21/190055 NOSIG RMK QFE749
Conditions at: UNTT (PLOTNIKOVO/TOMSK, RU) observed 1530 UTC 19 April 2019
Temperature: -2.0°C (28°F)
Dewpoint: -7.0°C (19°F) [RH = 69%]
Pressure (altimeter): 30.09 inches Hg (1019.0 mb)
Winds: from the S (170 degrees) at 7 MPH (6 knots; 3.1 m/s)
Visibility: 6 or more miles (10+ km)
Ceiling: ceiling and visibility are OK
Clouds: unknown
Weather: no significant weather observed at this time

METAR text: UNTT 191500Z 19003MPS CAVOK M02/M07 Q1020 R21/190055 NOSIG RMK QFE750
Conditions at: UNTT (PLOTNIKOVO/TOMSK, RU) observed 1500 UTC 19 April 2019
Temperature: -2.0°C (28°F)
Dewpoint: -7.0°C (19°F) [RH = 69%]
Pressure (altimeter): 30.12 inches Hg (1020.0 mb)
Winds: from the S (190 degrees) at 7 MPH (6 knots; 3.1 m/s)
Visibility: 6 or more miles (10+ km)
Ceiling: ceiling and visibility are OK
Clouds: unknown
Weather: no significant weather observed at this time

METAR text: UNTT 191430Z 22003MPS CAVOK M01/M07 Q1020 R21/190055 NOSIG RMK QFE750
Conditions at: UNTT (PLOTNIKOVO/TOMSK, RU) observed 1430 UTC 19 April 2019
Temperature: -1.0°C (30°F)
Dewpoint: -7.0°C (19°F) [RH = 64%]
Pressure (altimeter): 30.12 inches Hg (1020.0 mb)
Winds: from the SW (220 degrees) at 7 MPH (6 knots; 3.1 m/s)
Visibility: 6 or more miles (10+ km)
Ceiling: ceiling and visibility are OK
Clouds: unknown
Weather: no significant weather observed at this time

METAR text: UNTT 191400Z 21004MPS CAVOK M01/M06 Q1020 R21/190055 NOSIG RMK QFE750
Conditions at: UNTT (PLOTNIKOVO/TOMSK, RU) observed 1400 UTC 19 April 2019
Temperature: -1.0°C (30°F)
Dewpoint: -6.0°C (21°F) [RH = 69%]
Pressure (altimeter): 30.12 inches Hg (1020.0 mb)
Winds: from the SSW (210 degrees) at 9 MPH (8 knots; 4.1 m/s)
Visibility: 6 or more miles (10+ km)
Ceiling: ceiling and visibility are OK
Clouds: unknown
Weather: no significant weather observed at this time

METAR text: UNTT 191330Z 21004MPS CAVOK 00/M06 Q1021 R21/190055 NOSIG RMK QFE750
Conditions at: UNTT (PLOTNIKOVO/TOMSK, RU) observed 1330 UTC 19 April 2019
Temperature: 0.0°C (32°F)
Dewpoint: -6.0°C (21°F) [RH = 64%]
Pressure (altimeter): 30.15 inches Hg (1021.0 mb)
Winds: from the SSW (210 degrees) at 9 MPH (8 knots; 4.1 m/s)
Visibility: 6 or more miles (10+ km)
Ceiling: ceiling and visibility are OK
Clouds: unknown
Weather: no significant weather observed at this time

METAR text: UNTT 191300Z 21005MPS CAVOK 01/M06 Q1021 R21/190055 NOSIG RMK QFE750
Conditions at: UNTT (PLOTNIKOVO/TOMSK, RU) observed 1300 UTC 19 April 2019
Temperature: 1.0°C (34°F)
Dewpoint: -6.0°C (21°F) [RH = 59%]
Pressure (altimeter): 30.15 inches Hg (1021.0 mb)
Winds: from the SSW (210 degrees) at 12 MPH (10 knots; 5.1 m/s)
Visibility: 6 or more miles (10+ km)
Ceiling: ceiling and visibility are OK
Clouds: unknown
Weather: no significant weather observed at this time

METAR text: UNTT 191230Z 20005MPS CAVOK 01/M06 Q1021 R21/190055 NOSIG RMK QFE751
Conditions at: UNTT (PLOTNIKOVO/TOMSK, RU) observed 1230 UTC 19 April 2019
Temperature: 1.0°C (34°F)
Dewpoint: -6.0°C (21°F) [RH = 59%]
Pressure (altimeter): 30.15 inches Hg (1021.0 mb)
Winds: from the SSW (200 degrees) at 12 MPH (10 knots; 5.1 m/s)
Visibility: 6 or more miles (10+ km)
Ceiling: ceiling and visibility are OK
Clouds: unknown
Weather: no significant weather observed at this time

METAR text: UNTT 191200Z 22005MPS 9999 SCT042 01/M07 Q1021 R21/190055 NOSIG RMK QFE751
Conditions at: UNTT (PLOTNIKOVO/TOMSK, RU) observed 1200 UTC 19 April 2019
Temperature: 1.0°C (34°F)
Dewpoint: -7.0°C (19°F) [RH = 55%]
Pressure (altimeter): 30.15 inches Hg (1021.0 mb)
Winds: from the SW (220 degrees) at 12 MPH (10 knots; 5.1 m/s)
Visibility: 6 or more miles (10+ km)
Ceiling: at least 12,000 feet AGL
Clouds: scattered clouds at 4200 feet AGL
Weather: no significant weather observed at this time

METAR text: UNTT 191130Z 24005MPS 9999 SCT044 02/M07 Q1022 R21/190055 NOSIG RMK QFE751
Conditions at: UNTT (PLOTNIKOVO/TOMSK, RU) observed 1130 UTC 19 April 2019
Temperature: 2.0°C (36°F)
Dewpoint: -7.0°C (19°F) [RH = 51%]
Pressure (altimeter): 30.18 inches Hg (1022.0 mb)
Winds: from the WSW (240 degrees) at 12 MPH (10 knots; 5.1 m/s)
Visibility: 6 or more miles (10+ km)
Ceiling: at least 12,000 feet AGL
Clouds: scattered clouds at 4400 feet AGL
Weather: no significant weather observed at this time

METAR text: UNTT 191100Z 23005MPS CAVOK 01/M07 Q1022 R21/190055 NOSIG RMK QFE751
Conditions at: UNTT (PLOTNIKOVO/TOMSK, RU) observed 1100 UTC 19 April 2019
Temperature: 1.0°C (34°F)
Dewpoint: -7.0°C (19°F) [RH = 55%]
Pressure (altimeter): 30.18 inches Hg (1022.0 mb)
Winds: from the SW (230 degrees) at 12 MPH (10 knots; 5.1 m/s)
Visibility: 6 or more miles (10+ km)
Ceiling: ceiling and visibility are OK
Clouds: unknown
Weather: no significant weather observed at this time

METAR text: UNTT 191030Z 24005MPS CAVOK 02/M07 Q1022 R21/190055 NOSIG RMK QFE751
Conditions at: UNTT (PLOTNIKOVO/TOMSK, RU) observed 1030 UTC 19 April 2019
Temperature: 2.0°C (36°F)
Dewpoint: -7.0°C (19°F) [RH = 51%]
Pressure (altimeter): 30.18 inches Hg (1022.0 mb)
Winds: from the WSW (240 degrees) at 12 MPH (10 knots; 5.1 m/s)
Visibility: 6 or more miles (10+ km)
Ceiling: ceiling and visibility are OK
Clouds: unknown
Weather: no significant weather observed at this time

METAR text: UNTT 191000Z 24005MPS 210V280 9999 SCT048 01/M07 Q1022 R21/190055 NOSIG RMK QFE752
Conditions at: UNTT (PLOTNIKOVO/TOMSK, RU) observed 1000 UTC 19 April 2019
Temperature: 1.0°C (34°F)
Dewpoint: -7.0°C (19°F) [RH = 55%]
Pressure (altimeter): 30.18 inches Hg (1022.0 mb)
Winds: from the WSW (240 degrees) at 12 MPH (10 knots; 5.1 m/s)
Visibility: 6 or more miles (10+ km)
Ceiling: at least 12,000 feet AGL
Clouds: scattered clouds at 4800 feet AGL
Weather: no significant weather observed at this time

METAR text: UNTT 190930Z 23006MPS CAVOK 01/M07 Q1023 R21/190055 NOSIG RMK QFE752
Conditions at: UNTT (PLOTNIKOVO/TOMSK, RU) observed 0930 UTC 19 April 2019
Temperature: 1.0°C (34°F)
Dewpoint: -7.0°C (19°F) [RH = 55%]
Pressure (altimeter): 30.21 inches Hg (1023.0 mb)
Winds: from the SW (230 degrees) at 14 MPH (12 knots; 6.2 m/s)
Visibility: 6 or more miles (10+ km)
Ceiling: ceiling and visibility are OK
Clouds: unknown
Weather: no significant weather observed at this time

METAR text: UNTT 190900Z 25005MPS 9999 SCT045 01/M07 Q1023 R21/190055 NOSIG RMK QFE752
Conditions at: UNTT (PLOTNIKOVO/TOMSK, RU) observed 0900 UTC 19 April 2019
Temperature: 1.0°C (34°F)
Dewpoint: -7.0°C (19°F) [RH = 55%]
Pressure (altimeter): 30.21 inches Hg (1023.0 mb)
Winds: from the WSW (250 degrees) at 12 MPH (10 knots; 5.1 m/s)
Visibility: 6 or more miles (10+ km)
Ceiling: at least 12,000 feet AGL
Clouds: scattered clouds at 4500 feet AGL
Weather: no significant weather observed at this time

METAR text: UNTT 190830Z 24005MPS 210V280 9999 SCT048 01/M07 Q1023 R21/190055 NOSIG RMK QFE752
Conditions at: UNTT (PLOTNIKOVO/TOMSK, RU) observed 0830 UTC 19 April 2019
Temperature: 1.0°C (34°F)
Dewpoint: -7.0°C (19°F) [RH = 55%]
Pressure (altimeter): 30.21 inches Hg (1023.0 mb)
Winds: from the WSW (240 degrees) at 12 MPH (10 knots; 5.1 m/s)
Visibility: 6 or more miles (10+ km)
Ceiling: at least 12,000 feet AGL
Clouds: scattered clouds at 4800 feet AGL
Weather: no significant weather observed at this time

METAR text: UNTT 190800Z 25005MPS 9999 SCT039 01/M08 Q1023 R21/190055 NOSIG RMK QFE752
Conditions at: UNTT (PLOTNIKOVO/TOMSK, RU) observed 0800 UTC 19 April 2019
Temperature: 1.0°C (34°F)
Dewpoint: -8.0°C (18°F) [RH = 51%]
Pressure (altimeter): 30.21 inches Hg (1023.0 mb)
Winds: from the WSW (250 degrees) at 12 MPH (10 knots; 5.1 m/s)
Visibility: 6 or more miles (10+ km)
Ceiling: at least 12,000 feet AGL
Clouds: scattered clouds at 3900 feet AGL
Weather: no significant weather observed at this time

METAR text: UNTT 190730Z 23007MPS CAVOK 00/M08 Q1024 R21/190055 NOSIG RMK QFE752
Conditions at: UNTT (PLOTNIKOVO/TOMSK, RU) observed 0730 UTC 19 April 2019
Temperature: 0.0°C (32°F)
Dewpoint: -8.0°C (18°F) [RH = 55%]
Pressure (altimeter): 30.24 inches Hg (1024.0 mb)
Winds: from the SW (230 degrees) at 16 MPH (14 knots; 7.2 m/s)
Visibility: 6 or more miles (10+ km)
Ceiling: ceiling and visibility are OK
Clouds: unknown
Weather: no significant weather observed at this time

METAR text: UNTT 190700Z 25006MPS 9999 SCT041 00/M09 Q1024 R21/190055 NOSIG RMK QFE753
Conditions at: UNTT (PLOTNIKOVO/TOMSK, RU) observed 0700 UTC 19 April 2019
Temperature: 0.0°C (32°F)
Dewpoint: -9.0°C (16°F) [RH = 51%]
Pressure (altimeter): 30.24 inches Hg (1024.0 mb)
Winds: from the WSW (250 degrees) at 14 MPH (12 knots; 6.2 m/s)
Visibility: 6 or more miles (10+ km)
Ceiling: at least 12,000 feet AGL
Clouds: scattered clouds at 4100 feet AGL
Weather: no significant weather observed at this time

METAR text: UNTT 190630Z 25006MPS 9999 SCT044 M00/M09 Q1024 R21/190055 NOSIG RMK QFE753
Conditions at: UNTT (PLOTNIKOVO/TOMSK, RU) observed 0630 UTC 19 April 2019
Temperature: 0.0°C (32°F)
Dewpoint: -9.0°C (16°F) [RH = 51%]
Pressure (altimeter): 30.24 inches Hg (1024.0 mb)
Winds: from the WSW (250 degrees) at 14 MPH (12 knots; 6.2 m/s)
Visibility: 6 or more miles (10+ km)
Ceiling: at least 12,000 feet AGL
Clouds: scattered clouds at 4400 feet AGL
Weather: no significant weather observed at this time

METAR text: UNTT 190600Z 25008MPS 9999 SCT042 M01/M10 Q1024 R21/950240 NOSIG RMK QFE753
Conditions at: UNTT (PLOTNIKOVO/TOMSK, RU) observed 0600 UTC 19 April 2019
Temperature: -1.0°C (30°F)
Dewpoint: -10.0°C (14°F) [RH = 50%]
Pressure (altimeter): 30.24 inches Hg (1024.0 mb)
Winds: from the WSW (250 degrees) at 18 MPH (16 knots; 8.2 m/s)
Visibility: 6 or more miles (10+ km)
Ceiling: at least 12,000 feet AGL
Clouds: scattered clouds at 4200 feet AGL
Weather: no significant weather observed at this time

METAR text: UNTT 190530Z 24006MPS 9999 SCT036 M01/M10 Q1024 R21/950240 NOSIG RMK QFE753
Conditions at: UNTT (PLOTNIKOVO/TOMSK, RU) observed 0530 UTC 19 April 2019
Temperature: -1.0°C (30°F)
Dewpoint: -10.0°C (14°F) [RH = 50%]
Pressure (altimeter): 30.24 inches Hg (1024.0 mb)
Winds: from the WSW (240 degrees) at 14 MPH (12 knots; 6.2 m/s)
Visibility: 6 or more miles (10+ km)
Ceiling: at least 12,000 feet AGL
Clouds: scattered clouds at 3600 feet AGL
Weather: no significant weather observed at this time

METAR text: UNTT 190500Z 25006MPS 9999 SCT043 M02/M09 Q1025 R21/950240 NOSIG RMK QFE753
Conditions at: UNTT (PLOTNIKOVO/TOMSK, RU) observed 0500 UTC 19 April 2019
Temperature: -2.0°C (28°F)
Dewpoint: -9.0°C (16°F) [RH = 59%]
Pressure (altimeter): 30.27 inches Hg (1025.0 mb)
Winds: from the WSW (250 degrees) at 14 MPH (12 knots; 6.2 m/s)
Visibility: 6 or more miles (10+ km)
Ceiling: at least 12,000 feet AGL
Clouds: scattered clouds at 4300 feet AGL
Weather: no significant weather observed at this time

METAR text: UNTT 190430Z 25006G11MPS 9999 SCT040 M02/M10 Q1025 R21/950240 NOSIG RMK QFE754
Conditions at: UNTT (PLOTNIKOVO/TOMSK, RU) observed 0430 UTC 19 April 2019
Temperature: -2.0°C (28°F)
Dewpoint: -10.0°C (14°F) [RH = 54%]
Pressure (altimeter): 30.27 inches Hg (1025.0 mb)
Winds: from the WSW (250 degrees) at 14 MPH (12 knots; 6.2 m/s)
gusting to 24 MPH (21 knots; 10.8 m/s)
Visibility: 6 or more miles (10+ km)
Ceiling: at least 12,000 feet AGL
Clouds: scattered clouds at 4000 feet AGL
Weather: no significant weather observed at this time

METAR text: UNTT 190400Z 24006G11MPS CAVOK M03/M10 Q1025 R21/950240 NOSIG RMK QFE754
Conditions at: UNTT (PLOTNIKOVO/TOMSK, RU) observed 0400 UTC 19 April 2019
Temperature: -3.0°C (27°F)
Dewpoint: -10.0°C (14°F) [RH = 58%]
Pressure (altimeter): 30.27 inches Hg (1025.0 mb)
Winds: from the WSW (240 degrees) at 14 MPH (12 knots; 6.2 m/s)
gusting to 24 MPH (21 knots; 10.8 m/s)
Visibility: 6 or more miles (10+ km)
Ceiling: ceiling and visibility are OK
Clouds: unknown
Weather: no significant weather observed at this time

METAR text: UNTT 190330Z 24006MPS CAVOK M04/M11 Q1025 R21/950240 NOSIG RMK QFE754
Conditions at: UNTT (PLOTNIKOVO/TOMSK, RU) observed 0330 UTC 19 April 2019
Temperature: -4.0°C (25°F)
Dewpoint: -11.0°C (12°F) [RH = 58%]
Pressure (altimeter): 30.27 inches Hg (1025.0 mb)
Winds: from the WSW (240 degrees) at 14 MPH (12 knots; 6.2 m/s)
Visibility: 6 or more miles (10+ km)
Ceiling: ceiling and visibility are OK
Clouds: unknown
Weather: no significant weather observed at this time

METAR text: UNTT 190300Z 24007MPS CAVOK M04/M11 Q1025 R21/950240 NOSIG RMK QFE754
Conditions at: UNTT (PLOTNIKOVO/TOMSK, RU) observed 0300 UTC 19 April 2019
Temperature: -4.0°C (25°F)
Dewpoint: -11.0°C (12°F) [RH = 58%]
Pressure (altimeter): 30.27 inches Hg (1025.0 mb)
Winds: from the WSW (240 degrees) at 16 MPH (14 knots; 7.2 m/s)
Visibility: 6 or more miles (10+ km)
Ceiling: ceiling and visibility are OK
Clouds: unknown
Weather: no significant weather observed at this time

METAR text: UNTT 190230Z 25007MPS CAVOK M05/M11 Q1025 R21/950240 NOSIG RMK QFE753
Conditions at: UNTT (PLOTNIKOVO/TOMSK, RU) observed 0230 UTC 19 April 2019
Temperature: -5.0°C (23°F)
Dewpoint: -11.0°C (12°F) [RH = 63%]
Pressure (altimeter): 30.27 inches Hg (1025.0 mb)
Winds: from the WSW (250 degrees) at 16 MPH (14 knots; 7.2 m/s)
Visibility: 6 or more miles (10+ km)
Ceiling: ceiling and visibility are OK
Clouds: unknown
Weather: no significant weather observed at this time

METAR text: UNTT 190200Z 24005MPS CAVOK M06/M11 Q1025 R21/950240 NOSIG RMK QFE753
Conditions at: UNTT (PLOTNIKOVO/TOMSK, RU) observed 0200 UTC 19 April 2019
Temperature: -6.0°C (21°F)
Dewpoint: -11.0°C (12°F) [RH = 68%]
Pressure (altimeter): 30.27 inches Hg (1025.0 mb)
Winds: from the WSW (240 degrees) at 12 MPH (10 knots; 5.1 m/s)
Visibility: 6 or more miles (10+ km)
Ceiling: ceiling and visibility are OK
Clouds: unknown
Weather: no significant weather observed at this time

METAR text: UNTT 190130Z 24005MPS CAVOK M07/M12 Q1024 R21/950240 NOSIG RMK QFE753
Conditions at: UNTT (PLOTNIKOVO/TOMSK, RU) observed 0130 UTC 19 April 2019
Temperature: -7.0°C (19°F)
Dewpoint: -12.0°C (10°F) [RH = 67%]
Pressure (altimeter): 30.24 inches Hg (1024.0 mb)
Winds: from the WSW (240 degrees) at 12 MPH (10 knots; 5.1 m/s)
Visibility: 6 or more miles (10+ km)
Ceiling: ceiling and visibility are OK
Clouds: unknown
Weather: no significant weather observed at this time

METAR text: UNTT 190100Z 24005MPS CAVOK M07/M13 Q1024 R21/950240 NOSIG RMK QFE753
Conditions at: UNTT (PLOTNIKOVO/TOMSK, RU) observed 0100 UTC 19 April 2019
Temperature: -7.0°C (19°F)
Dewpoint: -13.0°C ( 9°F) [RH = 62%]
Pressure (altimeter): 30.24 inches Hg (1024.0 mb)
Winds: from the WSW (240 degrees) at 12 MPH (10 knots; 5.1 m/s)
Visibility: 6 or more miles (10+ km)
Ceiling: ceiling and visibility are OK
Clouds: unknown
Weather: no significant weather observed at this time

METAR text: UNTT 190030Z 25005MPS CAVOK M07/M13 Q1023 R21/950240 NOSIG RMK QFE752
Conditions at: UNTT (PLOTNIKOVO/TOMSK, RU) observed 0030 UTC 19 April 2019
Temperature: -7.0°C (19°F)
Dewpoint: -13.0°C ( 9°F) [RH = 62%]
Pressure (altimeter): 30.21 inches Hg (1023.0 mb)
Winds: from the WSW (250 degrees) at 12 MPH (10 knots; 5.1 m/s)
Visibility: 6 or more miles (10+ km)
Ceiling: ceiling and visibility are OK
Clouds: unknown
Weather: no significant weather observed at this time

METAR text: UNTT 190000Z 25004MPS CAVOK M08/M13 Q1023 R21/950240 NOSIG RMK QFE752
Conditions at: UNTT (PLOTNIKOVO/TOMSK, RU) observed 0000 UTC 19 April 2019
Temperature: -8.0°C (18°F)
Dewpoint: -13.0°C ( 9°F) [RH = 67%]
Pressure (altimeter): 30.21 inches Hg (1023.0 mb)
Winds: from the WSW (250 degrees) at 9 MPH (8 knots; 4.1 m/s)
Visibility: 6 or more miles (10+ km)
Ceiling: ceiling and visibility are OK
Clouds: unknown
Weather: no significant weather observed at this time

METAR text: UNTT 182330Z 24005MPS CAVOK M08/M13 Q1023 R21/950240 NOSIG RMK QFE752
Conditions at: UNTT (PLOTNIKOVO/TOMSK, RU) observed 2330 UTC 18 April 2019
Temperature: -8.0°C (18°F)
Dewpoint: -13.0°C ( 9°F) [RH = 67%]
Pressure (altimeter): 30.21 inches Hg (1023.0 mb)
Winds: from the WSW (240 degrees) at 12 MPH (10 knots; 5.1 m/s)
Visibility: 6 or more miles (10+ km)
Ceiling: ceiling and visibility are OK
Clouds: unknown
Weather: no significant weather observed at this time

METAR text: UNTT 182300Z 24005MPS CAVOK M08/M13 Q1022 R21/950240 NOSIG RMK QFE752
Conditions at: UNTT (PLOTNIKOVO/TOMSK, RU) observed 2300 UTC 18 April 2019
Temperature: -8.0°C (18°F)
Dewpoint: -13.0°C ( 9°F) [RH = 67%]
Pressure (altimeter): 30.18 inches Hg (1022.0 mb)
Winds: from the WSW (240 degrees) at 12 MPH (10 knots; 5.1 m/s)
Visibility: 6 or more miles (10+ km)
Ceiling: ceiling and visibility are OK
Clouds: unknown
Weather: no significant weather observed at this time

METAR text: UNTT 182230Z 25005MPS CAVOK M07/M13 Q1022 R21/950240 NOSIG RMK QFE751
Conditions at: UNTT (PLOTNIKOVO/TOMSK, RU) observed 2230 UTC 18 April 2019
Temperature: -7.0°C (19°F)
Dewpoint: -13.0°C ( 9°F) [RH = 62%]
Pressure (altimeter): 30.18 inches Hg (1022.0 mb)
Winds: from the WSW (250 degrees) at 12 MPH (10 knots; 5.1 m/s)
Visibility: 6 or more miles (10+ km)
Ceiling: ceiling and visibility are OK
Clouds: unknown
Weather: no significant weather observed at this time

METAR text: UNTT 182200Z 25005MPS CAVOK M07/M13 Q1021 R21/950240 NOSIG RMK QFE751
Conditions at: UNTT (PLOTNIKOVO/TOMSK, RU) observed 2200 UTC 18 April 2019
Temperature: -7.0°C (19°F)
Dewpoint: -13.0°C ( 9°F) [RH = 62%]
Pressure (altimeter): 30.15 inches Hg (1021.0 mb)
Winds: from the WSW (250 degrees) at 12 MPH (10 knots; 5.1 m/s)
Visibility: 6 or more miles (10+ km)
Ceiling: ceiling and visibility are OK
Clouds: unknown
Weather: no significant weather observed at this time

METAR text: UNTT 182130Z 25005MPS CAVOK M06/M12 Q1021 NOSIG RMK QFE750
Conditions at: UNTT (PLOTNIKOVO/TOMSK, RU) observed 2130 UTC 18 April 2019
Temperature: -6.0°C (21°F)
Dewpoint: -12.0°C (10°F) [RH = 62%]
Pressure (altimeter): 30.15 inches Hg (1021.0 mb)
Winds: from the WSW (250 degrees) at 12 MPH (10 knots; 5.1 m/s)
Visibility: 6 or more miles (10+ km)
Ceiling: ceiling and visibility are OK
Clouds: unknown
Weather: no significant weather observed at this time

METAR text: UNTT 182100Z 25005MPS 9999 FEW021CB M06/M11 Q1020 NOSIG RMK QFE750
Conditions at: UNTT (PLOTNIKOVO/TOMSK, RU) observed 2100 UTC 18 April 2019
Temperature: -6.0°C (21°F)
Dewpoint: -11.0°C (12°F) [RH = 68%]
Pressure (altimeter): 30.12 inches Hg (1020.0 mb)
Winds: from the WSW (250 degrees) at 12 MPH (10 knots; 5.1 m/s)
Visibility: 6 or more miles (10+ km)
Ceiling: at least 12,000 feet AGL
Clouds: few clouds at 2100 feet AGL
Weather: no significant weather observed at this time

METAR text: UNTT 182030Z 25006MPS 9999 FEW021CB SCT049 M06/M10 Q1019 NOSIG RMK QFE749
Conditions at: UNTT (PLOTNIKOVO/TOMSK, RU) observed 2030 UTC 18 April 2019
Temperature: -6.0°C (21°F)
Dewpoint: -10.0°C (14°F) [RH = 73%]
Pressure (altimeter): 30.09 inches Hg (1019.0 mb)
Winds: from the WSW (250 degrees) at 14 MPH (12 knots; 6.2 m/s)
Visibility: 6 or more miles (10+ km)
Ceiling: at least 12,000 feet AGL
Clouds: few clouds at 2100 feet AGL
scattered clouds at 4900 feet AGL
Weather: no significant weather observed at this time

METAR text: UNTT 182000Z 25006MPS 9999 FEW021CB SCT040 M07/M09 Q1019 NOSIG RMK QFE749
Conditions at: UNTT (PLOTNIKOVO/TOMSK, RU) observed 2000 UTC 18 April 2019
Temperature: -7.0°C (19°F)
Dewpoint: -9.0°C (16°F) [RH = 86%]
Pressure (altimeter): 30.09 inches Hg (1019.0 mb)
Winds: from the WSW (250 degrees) at 14 MPH (12 knots; 6.2 m/s)
Visibility: 6 or more miles (10+ km)
Ceiling: at least 12,000 feet AGL
Clouds: few clouds at 2100 feet AGL
scattered clouds at 4000 feet AGL
Weather: no significant weather observed at this time

METAR text: UNTT 181900Z 25006MPS 9999 -SHSN SCT015CB M06/M09 Q1018 NOSIG RMK QFE748
Conditions at: UNTT (PLOTNIKOVO/TOMSK, RU) observed 1900 UTC 18 April 2019
Temperature: -6.0°C (21°F)
Dewpoint: -9.0°C (16°F) [RH = 79%]
Pressure (altimeter): 30.06 inches Hg (1018.0 mb)
Winds: from the WSW (250 degrees) at 14 MPH (12 knots; 6.2 m/s)
Visibility: 6 or more miles (10+ km)
Ceiling: at least 12,000 feet AGL
Clouds: scattered clouds at 1500 feet AGL
Weather: -SHSN  (light snow showers)

METAR text: UNTT 181830Z 26006MPS 9999 -SHSN SCT020CB BKN033 M06/M09 Q1017 R21/490237 NOSIG RMK QFE748
Conditions at: UNTT (PLOTNIKOVO/TOMSK, RU) observed 1830 UTC 18 April 2019
Temperature: -6.0°C (21°F)
Dewpoint: -9.0°C (16°F) [RH = 79%]
Pressure (altimeter): 30.03 inches Hg (1017.0 mb)
Winds: from the W (260 degrees) at 14 MPH (12 knots; 6.2 m/s)
Visibility: 6 or more miles (10+ km)
Ceiling: 3300 feet AGL
Clouds: scattered clouds at 2000 feet AGL
broken clouds at 3300 feet AGL
Weather: -SHSN  (light snow showers)

METAR text: UNTT 181800Z 26007G12MPS 9000 -SHSN DRSN SCT019CB BKN041 M06/M09 Q1017 R21/490237 NOSIG RMK QFE747
Conditions at: UNTT (PLOTNIKOVO/TOMSK, RU) observed 1800 UTC 18 April 2019
Temperature: -6.0°C (21°F)
Dewpoint: -9.0°C (16°F) [RH = 79%]
Pressure (altimeter): 30.03 inches Hg (1017.0 mb)
Winds: from the W (260 degrees) at 16 MPH (14 knots; 7.2 m/s)
gusting to 26 MPH (23 knots; 11.8 m/s)
Visibility: 6 miles ( 9 km)
Ceiling: 4100 feet AGL
Clouds: scattered clouds at 1900 feet AGL
broken clouds at 4100 feet AGL
Weather: -SHSN DRSN  (light snow showers, low drifting snow)

METAR text: UNTT 181730Z 26007MPS 9000 -SHSN DRSN SCT015CB BKN031 M06/M09 Q1016 R21/490237 NOSIG RMK QFE747
Conditions at: UNTT (PLOTNIKOVO/TOMSK, RU) observed 1730 UTC 18 April 2019
Temperature: -6.0°C (21°F)
Dewpoint: -9.0°C (16°F) [RH = 79%]
Pressure (altimeter): 30.00 inches Hg (1016.0 mb)
Winds: from the W (260 degrees) at 16 MPH (14 knots; 7.2 m/s)
Visibility: 6 miles ( 9 km)
Ceiling: 3100 feet AGL
Clouds: scattered clouds at 1500 feet AGL
broken clouds at 3100 feet AGL
Weather: -SHSN DRSN  (light snow showers, low drifting snow)

METAR text: UNTT 181700Z 26008MPS 6000 -SHSN DRSN SCT013CB BKN028 M07/M09 Q1015 R21/490237 NOSIG RMK QFE746
Conditions at: UNTT (PLOTNIKOVO/TOMSK, RU) observed 1700 UTC 18 April 2019
Temperature: -7.0°C (19°F)
Dewpoint: -9.0°C (16°F) [RH = 86%]
Pressure (altimeter): 29.97 inches Hg (1015.0 mb)
Winds: from the W (260 degrees) at 18 MPH (16 knots; 8.2 m/s)
Visibility: 4 miles ( 6 km)
Ceiling: 2800 feet AGL
Clouds: scattered clouds at 1300 feet AGL
broken clouds at 2800 feet AGL
Weather: -SHSN DRSN  (light snow showers, low drifting snow)

METAR text: UNTT 181630Z 25008MPS 3500 -SHSN DRSN SCT016CB BKN033 M07/M09 Q1015 R21/490237 NOSIG RMK QFE746
Conditions at: UNTT (PLOTNIKOVO/TOMSK, RU) observed 1630 UTC 18 April 2019
Temperature: -7.0°C (19°F)
Dewpoint: -9.0°C (16°F) [RH = 86%]
Pressure (altimeter): 29.97 inches Hg (1015.0 mb)
Winds: from the WSW (250 degrees) at 18 MPH (16 knots; 8.2 m/s)
Visibility: 2.17 miles (3.49 km)
Ceiling: 3300 feet AGL
Clouds: scattered clouds at 1600 feet AGL
broken clouds at 3300 feet AGL
Weather: -SHSN DRSN  (light snow showers, low drifting snow)

METAR text: UNTT 181600Z 25007MPS 5000 -SHSN DRSN FEW023CB M07/M10 Q1014 R21/490237 NOSIG RMK QFE746
Conditions at: UNTT (PLOTNIKOVO/TOMSK, RU) observed 1600 UTC 18 April 2019
Temperature: -7.0°C (19°F)
Dewpoint: -10.0°C (14°F) [RH = 79%]
Pressure (altimeter): 29.94 inches Hg (1014.0 mb)
Winds: from the WSW (250 degrees) at 16 MPH (14 knots; 7.2 m/s)
Visibility: 3 miles ( 5 km)
Ceiling: at least 12,000 feet AGL
Clouds: few clouds at 2300 feet AGL
Weather: -SHSN DRSN  (light snow showers, low drifting snow)

METAR text: UNTT 181530Z 24008MPS 6000 -SHSN DRSN FEW023CB M08/M10 Q1014 R21/490237 NOSIG RMK QFE745
Conditions at: UNTT (PLOTNIKOVO/TOMSK, RU) observed 1530 UTC 18 April 2019
Temperature: -8.0°C (18°F)
Dewpoint: -10.0°C (14°F) [RH = 85%]
Pressure (altimeter): 29.94 inches Hg (1014.0 mb)
Winds: from the WSW (240 degrees) at 18 MPH (16 knots; 8.2 m/s)
Visibility: 4 miles ( 6 km)
Ceiling: at least 12,000 feet AGL
Clouds: few clouds at 2300 feet AGL
Weather: -SHSN DRSN  (light snow showers, low drifting snow)

METAR text: UNTT 181500Z 24008MPS 7000 -SHSN DRSN SCT019CB BKN037 M08/M10 Q1013 R21/490237 NOSIG RMK QFE745
Conditions at: UNTT (PLOTNIKOVO/TOMSK, RU) observed 1500 UTC 18 April 2019
Temperature: -8.0°C (18°F)
Dewpoint: -10.0°C (14°F) [RH = 85%]
Pressure (altimeter): 29.91 inches Hg (1013.0 mb)
Winds: from the WSW (240 degrees) at 18 MPH (16 knots; 8.2 m/s)
Visibility: 4 miles ( 7 km)
Ceiling: 3700 feet AGL
Clouds: scattered clouds at 1900 feet AGL
broken clouds at 3700 feet AGL
Weather: -SHSN DRSN  (light snow showers, low drifting snow)

METAR text: UNTT 181430Z 24007MPS 4100 -SHSN DRSN SCT023CB BKN037 M09/M11 Q1013 R21/490237 NOSIG RMK QFE745
Conditions at: UNTT (PLOTNIKOVO/TOMSK, RU) observed 1430 UTC 18 April 2019
Temperature: -9.0°C (16°F)
Dewpoint: -11.0°C (12°F) [RH = 85%]
Pressure (altimeter): 29.91 inches Hg (1013.0 mb)
Winds: from the WSW (240 degrees) at 16 MPH (14 knots; 7.2 m/s)
Visibility: 2.55 miles (4.10 km)
Ceiling: 3700 feet AGL
Clouds: scattered clouds at 2300 feet AGL
broken clouds at 3700 feet AGL
Weather: -SHSN DRSN  (light snow showers, low drifting snow)

METAR text: UNTT 181400Z 24007MPS 3400 -SHSN DRSN SCT021CB BKN045 M09/M11 Q1013 R21/490237 NOSIG RMK QFE745
Conditions at: UNTT (PLOTNIKOVO/TOMSK, RU) observed 1400 UTC 18 April 2019
Temperature: -9.0°C (16°F)
Dewpoint: -11.0°C (12°F) [RH = 85%]
Pressure (altimeter): 29.91 inches Hg (1013.0 mb)
Winds: from the WSW (240 degrees) at 16 MPH (14 knots; 7.2 m/s)
Visibility: 2.11 miles (3.40 km)
Ceiling: 4500 feet AGL
Clouds: scattered clouds at 2100 feet AGL
broken clouds at 4500 feet AGL
Weather: -SHSN DRSN  (light snow showers, low drifting snow)

METAR text: UNTT 181330Z 24005MPS 3000 -SHSN SCT018CB BKN027 M09/M11 Q1012 R21/490237 NOSIG RMK QFE744
Conditions at: UNTT (PLOTNIKOVO/TOMSK, RU) observed 1330 UTC 18 April 2019
Temperature: -9.0°C (16°F)
Dewpoint: -11.0°C (12°F) [RH = 85%]
Pressure (altimeter): 29.88 inches Hg (1012.0 mb)
Winds: from the WSW (240 degrees) at 12 MPH (10 knots; 5.1 m/s)
Visibility: 1.86 miles (2.99 km)
Ceiling: 2700 feet AGL
Clouds: scattered clouds at 1800 feet AGL
broken clouds at 2700 feet AGL
Weather: -SHSN  (light snow showers)

METAR text: UNTT 181230Z 25007MPS 2300 R21/1900U -SHSN DRSN SCT018CB M09/M12 Q1011 R21/590337 NOSIG RMK QFE744
Conditions at: UNTT (PLOTNIKOVO/TOMSK, RU) observed 1230 UTC 18 April 2019
Temperature: -9.0°C (16°F)
Dewpoint: -12.0°C (10°F) [RH = 79%]
Pressure (altimeter): 29.85 inches Hg (1011.0 mb)
Winds: from the WSW (250 degrees) at 16 MPH (14 knots; 7.2 m/s)
Visibility: 1.43 miles (2.30 km)
Ceiling: at least 12,000 feet AGL
Clouds: scattered clouds at 1800 feet AGL
Weather: DRSN -SHSN  (low drifting snow, light snow showers)

METAR text: UNTT 181200Z 25008MPS 8000 -SHSN DRSN SCT025CB M09/M14 Q1011 R21/590337 NOSIG RMK QFE743
Conditions at: UNTT (PLOTNIKOVO/TOMSK, RU) observed 1200 UTC 18 April 2019
Temperature: -9.0°C (16°F)
Dewpoint: -14.0°C ( 7°F) [RH = 67%]
Pressure (altimeter): 29.85 inches Hg (1011.0 mb)
Winds: from the WSW (250 degrees) at 18 MPH (16 knots; 8.2 m/s)
Visibility: 5 miles ( 8 km)
Ceiling: at least 12,000 feet AGL
Clouds: scattered clouds at 2500 feet AGL
Weather: -SHSN DRSN  (light snow showers, low drifting snow)

METAR text: UNTT 181130Z 26009MPS 1000 R21/1000D SHSN DRSN SCT020CB M09/M14 Q1010 R21/590337 NOSIG RMK QFE743
Conditions at: UNTT (PLOTNIKOVO/TOMSK, RU) observed 1130 UTC 18 April 2019
Temperature: -9.0°C (16°F)
Dewpoint: -14.0°C ( 7°F) [RH = 67%]
Pressure (altimeter): 29.82 inches Hg (1010.0 mb)
Winds: from the W (260 degrees) at 20 MPH (17 knots; 8.7 m/s)
Visibility: 0.62 miles (1.00 km)
Ceiling: at least 12,000 feet AGL
Clouds: scattered clouds at 2000 feet AGL
Weather: DRSN SHSN  (low drifting snow, snow showers)

METAR text: UNTT 181100Z 26009G15MPS 8000 -SHSN DRSN SCT024CB M09/M14 Q1010 R21/590337 NOSIG RMK QFE742
Conditions at: UNTT (PLOTNIKOVO/TOMSK, RU) observed 1100 UTC 18 April 2019
Temperature: -9.0°C (16°F)
Dewpoint: -14.0°C ( 7°F) [RH = 67%]
Pressure (altimeter): 29.82 inches Hg (1010.0 mb)
Winds: from the W (260 degrees) at 20 MPH (17 knots; 8.7 m/s)
gusting to 33 MPH (29 knots; 14.9 m/s)
Visibility: 5 miles ( 8 km)
Ceiling: at least 12,000 feet AGL
Clouds: scattered clouds at 2400 feet AGL
Weather: -SHSN DRSN  (light snow showers, low drifting snow)

METAR text: UNTT 181030Z 26008MPS 9999 DRSN SCT029CB M08/M14 Q1009 R21/590337 NOSIG RMK QFE742
Conditions at: UNTT (PLOTNIKOVO/TOMSK, RU) observed 1030 UTC 18 April 2019
Temperature: -8.0°C (18°F)
Dewpoint: -14.0°C ( 7°F) [RH = 62%]
Pressure (altimeter): 29.79 inches Hg (1009.0 mb)
Winds: from the W (260 degrees) at 18 MPH (16 knots; 8.2 m/s)
Visibility: 6 or more miles (10+ km)
Ceiling: at least 12,000 feet AGL
Clouds: scattered clouds at 2900 feet AGL
Weather: DRSN  (low drifting snow)

METAR text: UNTT 181000Z 27007G12MPS 5000 -SHSN DRSN SCT017CB M09/M12 Q1008 R21/590337 NOSIG RMK QFE741
Conditions at: UNTT (PLOTNIKOVO/TOMSK, RU) observed 1000 UTC 18 April 2019
Temperature: -9.0°C (16°F)
Dewpoint: -12.0°C (10°F) [RH = 79%]
Pressure (altimeter): 29.76 inches Hg (1008.0 mb)
Winds: from the W (270 degrees) at 16 MPH (14 knots; 7.2 m/s)
gusting to 26 MPH (23 knots; 11.8 m/s)
Visibility: 3 miles ( 5 km)
Ceiling: at least 12,000 feet AGL
Clouds: scattered clouds at 1700 feet AGL
Weather: -SHSN DRSN  (light snow showers, low drifting snow)

METAR text: UNTT 180930Z 26008G14MPS 4300 -SHSN DRSN SCT018CB M09/M13 Q1008 R21/590337 NOSIG RMK QFE741
Conditions at: UNTT (PLOTNIKOVO/TOMSK, RU) observed 0930 UTC 18 April 2019
Temperature: -9.0°C (16°F)
Dewpoint: -13.0°C ( 9°F) [RH = 73%]
Pressure (altimeter): 29.76 inches Hg (1008.0 mb)
Winds: from the W (260 degrees) at 18 MPH (16 knots; 8.2 m/s)
gusting to 31 MPH (27 knots; 13.9 m/s)
Visibility: 2.67 miles (4.30 km)
Ceiling: at least 12,000 feet AGL
Clouds: scattered clouds at 1800 feet AGL
Weather: -SHSN DRSN  (light snow showers, low drifting snow)

METAR text: UNTT 180900Z 26009G14MPS 8000 -SHSN DRSN SCT023CB M09/M14 Q1007 R21/590337 NOSIG RMK QFE740
Conditions at: UNTT (PLOTNIKOVO/TOMSK, RU) observed 0900 UTC 18 April 2019
Temperature: -9.0°C (16°F)
Dewpoint: -14.0°C ( 7°F) [RH = 67%]
Pressure (altimeter): 29.73 inches Hg (1007.0 mb)
Winds: from the W (260 degrees) at 20 MPH (17 knots; 8.7 m/s)
gusting to 31 MPH (27 knots; 13.9 m/s)
Visibility: 5 miles ( 8 km)
Ceiling: at least 12,000 feet AGL
Clouds: scattered clouds at 2300 feet AGL
Weather: -SHSN DRSN  (light snow showers, low drifting snow)

METAR text: UNTT 180830Z 25009G15MPS 5000 -SHSN BLSN SCT020CB M09/M13 Q1006 R21/590337 NOSIG RMK QFE740
Conditions at: UNTT (PLOTNIKOVO/TOMSK, RU) observed 0830 UTC 18 April 2019
Temperature: -9.0°C (16°F)
Dewpoint: -13.0°C ( 9°F) [RH = 73%]
Pressure (altimeter): 29.70 inches Hg (1006.0 mb)
Winds: from the WSW (250 degrees) at 20 MPH (17 knots; 8.7 m/s)
gusting to 33 MPH (29 knots; 14.9 m/s)
Visibility: 3 miles ( 5 km)
Ceiling: at least 12,000 feet AGL
Clouds: scattered clouds at 2000 feet AGL
Weather: -SHSN BLSN  (light snow showers, blowing snow)

METAR text: UNTT 180800Z 26009G14MPS 1000 R21/1900D SHSN BLSN SCT022CB M09/M13 Q1005 R21/590337 NOSIG RMK QFE739
Conditions at: UNTT (PLOTNIKOVO/TOMSK, RU) observed 0800 UTC 18 April 2019
Temperature: -9.0°C (16°F)
Dewpoint: -13.0°C ( 9°F) [RH = 73%]
Pressure (altimeter): 29.68 inches Hg (1005.0 mb)
Winds: from the W (260 degrees) at 20 MPH (17 knots; 8.7 m/s)
gusting to 31 MPH (27 knots; 13.9 m/s)
Visibility: 0.62 miles (1.00 km)
Ceiling: at least 12,000 feet AGL
Clouds: scattered clouds at 2200 feet AGL
Weather: BLSN SHSN  (blowing snow, snow showers)

METAR text: UNTT 180730Z 26009G15MPS 5000 -SHSN DRSN SCT023CB M09/M13 Q1004 R21/590337 NOSIG RMK QFE738
Conditions at: UNTT (PLOTNIKOVO/TOMSK, RU) observed 0730 UTC 18 April 2019
Temperature: -9.0°C (16°F)
Dewpoint: -13.0°C ( 9°F) [RH = 73%]
Pressure (altimeter): 29.65 inches Hg (1004.0 mb)
Winds: from the W (260 degrees) at 20 MPH (17 knots; 8.7 m/s)
gusting to 33 MPH (29 knots; 14.9 m/s)
Visibility: 3 miles ( 5 km)
Ceiling: at least 12,000 feet AGL
Clouds: scattered clouds at 2300 feet AGL
Weather: -SHSN DRSN  (light snow showers, low drifting snow)

METAR text: UNTT 180700Z 25009G15MPS 1300 1200W R21/1300U SHSN DRSN SCT018CB M09/M12 Q1003 R21/590337 NOSIG RMK QFE737
Conditions at: UNTT (PLOTNIKOVO/TOMSK, RU) observed 0700 UTC 18 April 2019
Temperature: -9.0°C (16°F)
Dewpoint: -12.0°C (10°F) [RH = 79%]
Pressure (altimeter): 29.62 inches Hg (1003.0 mb)
Winds: from the WSW (250 degrees) at 20 MPH (17 knots; 8.7 m/s)
gusting to 33 MPH (29 knots; 14.9 m/s)
Visibility: 0.81 miles (1.30 km)
Ceiling: at least 12,000 feet AGL
Clouds: scattered clouds at 1800 feet AGL
Weather: DRSN SHSN  (low drifting snow, snow showers)

METAR text: UNTT 180630Z 27007MPS 0900 0600S R21/1100D +SHSN DRSN VV008 M08/M11 Q1002 R21/590337 NOSIG RMK QFE737
Conditions at: UNTT (PLOTNIKOVO/TOMSK, RU) observed 0630 UTC 18 April 2019
Temperature: -8.0°C (18°F)
Dewpoint: -11.0°C (12°F) [RH = 79%]
Pressure (altimeter): 29.59 inches Hg (1002.0 mb)
Winds: from the W (270 degrees) at 16 MPH (14 knots; 7.2 m/s)
Visibility: 0.56 miles (0.90 km)
Ceiling: indefinite ceiling with vertical visibility of 800 feet AGL
Clouds: obscured sky
Weather: DRSN +SHSN  (low drifting snow, heavy snow showers)

Forecast for: UNTT (PLOTNIKOVO/TOMSK, RU)
Text: TAF UNTT 191700Z 1918/2003 19003MPS 9999 SCT030
Forecast period: 1800 UTC 19 April 2019 to 0300 UTC 20 April 2019
Forecast type: FROM: standard forecast or significant change
Winds: from the S (190 degrees) at 7 MPH (6 knots; 3.1 m/s)
Visibility: 6 or more miles 10+ km)
Ceiling: at least 12,000 feet AGL
Clouds: scattered clouds at 3000 feet AGL
Weather: no significant weather forecast for this period
Text: TEMPO 1918/1924 3100 -SHSN SCT011 SCT020CB
Forecast period: 1800 UTC 19 April 2019 to 0000 UTC 20 April 2019
Forecast type: TEMPORARY: The following changes expected for less than half the time period
Visibility: 1.93 miles (3.11 km)
Ceiling: at least 12,000 feet AGL
Clouds: scattered clouds at 1100 feet AGL
scattered clouds at 2000 feet AGL
Weather: -SHSN  (light snow showers)